Norway House Airport
CYNE : now visible

Aeroporto :











RITROVATECI SU...

 
LOGIN :

Iscrizione | Disclaimer

   EN    FR    IT 

 









Sommario :    VFR   VFR Marginale   IFR   IFR Intensivo   IFR Molto Intensivo
Visibilità : 
Base nubi : 
>= 8 km
>= 3000ft
5 / 8 km
1000 / 3000 ft
1500m / 5 km
500 / 1000 ft
800 / 1500m
200 / 500 ft
< 800m
< 200 ft
Simboli :   Temporali  Nebbia  Neve Forte  Precipitazioni Forti  Vento > 20 kt







- Altitudine del aeroporto : 734 ft
- Codice IATA : YNE


CYNE - Norway House

ULTIMO METAR :
  • 201600Z AUTO 28010G19KT 220V320 9SM FEW036 15/07 A2991 RMK SLP136 DENSITY ALT 900FT

METARs OBSOLETI :
  • 201500Z AUTO 27009G20KT 230V320 9SM CLR 13/08 A2991 RMK SLP138

TAF TAF CYNE
Valido dal 20 a 13 ore il 21 a 01 ore UTC


201238Z 2013/2101 27005KT P6SM SKC
BECMG 2014/2016 29012KT
FM201700 30012KT P6SM SCT030
TEMPO 2017/2101 BKN030 RMK FCST BASED ON AUTO OBS. NXT FCST BY 201900Z
Nessun NOTAM noto per questo aeroporto.



MetMap, La meteo Aeronautica in un colpo d'occhio ! - Copyright ORBIFLY Dicembre 2007 - Disclaimer

ORBIFLY MET'MAP TEAM :

Programmazione e sviluppo : Alexandra Zaïnal
Concezione e sviluppo : Baudouin d'Aumeries
Co-Programmazione e sviluppo : Marc-Olivier Méhu
Supporto tecnico e logistico : Manuel Goepfert
Aiuto per la traduzione : Arnaldo La Scala

Contatto : metmap@orbifly.com




FONTI E CREDITI :

   NOAA       Earth
Advisory